Airfield :
LOGIN :

Register | Disclaimer

   EN    FR    IT 

 










Legend :    VFR   Marginal VFR   IFR   Intensive IFR   Very Intensive IFR
Visi :
Ceiling :
>= 8 km
>= 3000ft
5 to 8 km
1000 to 3000 ft
1500m to 5 km
500 to 1000 ft
800 to 1500m
200 to 500 ft
< 800m
< 200 ft
Symbols :   Thunderstorms  Fog  Heavy snow  Heavy precipitations  Wind > 20 kt
SIGMETs :     Misc.  Thunderstorms  Icing  Turbulence  Mountain Waves  Volcanic Ashes







- Airport Elevation : 39 ft


ETNH - Hohn AB

CURRENT METAR :
  • 260720Z 16010KT 9999 -TSRA SCT030CB BKN090 13/11 Q1007 RESHGR BLU BLU TEMPO GRN

EXPIRED METARs :
  • 260713Z 34010KT 8000 -TSRA SCT030CB BKN090 13/11 Q1006 RESHGR BLU BLU TEMPO GRN
  • 260705Z 35010KT 3000 TSRAGR BKN030CB BKN090 14/10 Q1008 YLO BLU TEMPO GRN
  • 260632Z 02002KT 9999 VCTS FEW020CB BKN090 14/10 Q1007 BLU BLU TEMPO GRN
  • 260620Z 05002KT 9999 FEW020TCU BKN090 15/10 Q1007 BLU BLU TEMPO GRN
  • 260520Z 05003KT 9999 FEW020 BKN150 13/09 Q1007 BLU BLU

TAF AMD TAF ETNH
Valid from the 26 at 06:00 until the 26 at 17:00 UTC


260610Z 2606/2617 08006KT 9999 NSW SCT070 BKN140
TEMPO 2607/2608 27012G25KT 4000 TSRA BKN012 SCT060CB
FM260800 27010KT 9000 NSW SCT015 BKN080
TEMPO 2608/2613 28015G25KT 5000 SHRA BKN010 SCT050CB
PROB30 2609/2611 29020G32KT 2500 TSRA BKN007 BKN040CB BY ETGL
No reported NOTAMs for that airfield.
1 SIGMET reported for the Bremen FIR (EDWW) :
 
Frequent thunderstorms
EDWW SIGMET 1 VALID 260700/260830 EDZF
EDWW BREMEN FIR FRQ TS FCST APRX 40NM WID LINE BTN N5450 E00726 - N5347 E01103 TOP FL310 MOV NE WKN=



MET'MAP, your aeronautical weather chart ! - Copyright ORBIFLY December 2007 - Disclaimer

ORBIFLY MET'MAP TEAM :

Programming & Development : Alexandra Zaïnal
Concept & Development : Baudouin d'Aumeries
Co-Development & Prog : Marc-Olivier Méhu
Technical & hardware support : Manuel Goepfert

Contact : metmap@orbifly.com




SOURCES & CREDITS :

   NOAA